Portada
METAR-TAF:

METAR-TAF

Aeropuertos :

Murcia, España

Base Aérea de Alcantarilla

latitud: 37-57N, longitud: 001-14W, altitud: 75 m

Observación

El informe se hizo hace 1 hora y 9 minutos, a las 07:00 UTC
Viento 1 kt con dirección variable
Temperatura 9°C
Humedad 87%
Presión 1026 hPa
Visibilidad 10 km o más
sin nubes por debajo de 1500 m y sin presencia de cumulonimbus.

METAR: LERI 280700Z VRB01KT CAVOK 09/07 Q1026 NOSIG

Hora: 10:09 (08:09 UTC)

Pronóstico

El informe se hizo hace 3 horas y 9 minutos, a las 05:00 UTC
Pronóstico válido del 28 a las 06 UTC al 28 a las 15 UTC
Viento 3 kt del oeste
Visibilidad 10 km o más
Escasas nubes a una altura de 3000 ft

TAF: LERI 280500Z 2806/2815 27003KT 9999 FEW030

Observaciones y pronósticos meteorológicos de más de 4000 aeropuertos (mensajes METAR y TAF).

Los puntos amarillos y rojos representan las estaciones disponibles.

Ponga el ratón en el punto deseado para ver el nombre de la estación.

Haga clic para ver las observaciones y los pronósticos meteorológicos.

Para cambiar el mapa : haga clic en los botones verdes con una cruz de color negro para hacer un zoom, en el botón verde con un guión para alejar o en las flechas verdes para mapas adyacentes.


METAR-TAF: